Time;durP1;ratioP1;P1;durP2;ratioP2;P2;SDS_P1;SDS_P2;PMS_P1;PMS_P2;Temp;Humidity;BMP_temperature;BMP_pressure;BME280_temperature;BME280_humidity;BME280_pressure;Samples;Min_cycle;Max_cycle;Signal;HPM_P1;HPM_P2
2023/04/21 00:02:14;;;;;;;;;;;;;;;6.92;64.44;102104.42;108789;1257;59409;-78
2023/04/21 00:04:44;;;;;;;;;;;;;;;6.89;64.58;102102.49;108764;1258;60784;-78
2023/04/21 00:07:13;;;;;;;;;;;;;;;6.87;64.49;102097.15;108684;1261;123691;-77
2023/04/21 00:09:40;;;;;;;;;;;;;;;6.85;64.71;102104.38;108811;1257;66545;-78
2023/04/21 00:12:08;;;;;;;;;;;;;;;6.83;64.74;102100.55;108540;1258;124175;-78
2023/04/21 00:14:35;;;;;;;;;;;;;;;6.86;64.86;102100.90;108568;1260;233372;-77
2023/04/21 00:17:02;;;;;;;;;;;;;;;6.86;64.79;102101.48;108721;1260;124527;-78
2023/04/21 00:19:29;;;;;;;;;;;;;;;6.87;64.85;102101.73;108734;1257;74501;-78
2023/04/21 00:21:58;;;;;;;;;;;;;;;6.88;64.87;102104.73;107545;1257;67885;-78
2023/04/21 00:24:26;;;;;;;;;;;;;;;6.88;64.90;102101.40;107207;1257;125437;-78
2023/04/21 00:26:53;;;;;;;;;;;;;;;6.87;64.90;102106.77;107738;1257;61344;-78
2023/04/21 00:29:20;;;;;;;;;;;;;;;6.85;64.98;102109.41;107630;1258;124027;-78
2023/04/21 00:31:47;;;;;;;;;;;;;;;6.82;64.94;102108.00;107510;1262;74695;-77
2023/04/21 00:34:14;;;;;;;;;;;;;;;6.77;65.13;102107.90;107631;1258;65480;-78
2023/04/21 00:36:41;;;;;;;;;;;;;;;6.72;65.00;102103.73;107554;1263;123744;-78
2023/04/21 00:39:08;;;;;;;;;;;;;;;6.63;64.95;102106.84;107595;1256;61407;-78
2023/04/21 00:41:35;;;;;;;;;;;;;;;6.54;65.07;102109.59;107551;1257;124567;-78
2023/04/21 00:44:06;;;;;;;;;;;;;;;6.44;65.09;102109.11;107639;1257;73830;-78
2023/04/21 00:46:33;;;;;;;;;;;;;;;6.34;65.25;102109.18;107596;1262;65861;-77
2023/04/21 00:49:02;;;;;;;;;;;;;;;6.26;65.38;102108.51;107560;1258;123976;-78
2023/04/21 00:51:31;;;;;;;;;;;;;;;6.19;65.49;102106.30;107558;1257;61168;-78
2023/04/21 00:53:59;;;;;;;;;;;;;;;6.13;65.67;102107.67;108627;1257;124391;-78
2023/04/21 00:56:26;;;;;;;;;;;;;;;6.07;65.78;102107.63;108645;1261;73387;-78
2023/04/21 00:58:53;;;;;;;;;;;;;;;6.00;65.92;102107.22;108833;1260;67581;-78
2023/04/21 01:01:21;;;;;;;;;;;;;;;5.93;66.05;102106.38;108786;1258;71992;-78
2023/04/21 01:03:49;;;;;;;;;;;;;;;5.87;66.17;102109.95;108808;1260;59451;-77
2023/04/21 01:06:16;;;;;;;;;;;;;;;5.81;66.27;102108.70;108747;1257;124465;-78
2023/04/21 01:08:45;;;;;;;;;;;;;;;5.77;66.55;102103.57;108623;1257;73578;-78
2023/04/21 01:11:12;;;;;;;;;;;;;;;5.74;66.61;102105.60;108691;1258;124800;-78
2023/04/21 01:13:39;;;;;;;;;;;;;;;5.70;66.62;102105.19;108800;1257;72720;-78
2023/04/21 01:16:07;;;;;;;;;;;;;;;5.67;66.82;102103.23;108717;1262;59495;-77
2023/04/21 01:18:35;;;;;;;;;;;;;;;5.65;66.99;102099.46;108700;1257;125094;-77
2023/04/21 01:21:03;;;;;;;;;;;;;;;5.64;67.04;102097.13;108874;1257;74170;-77
2023/04/21 01:23:30;;;;;;;;;;;;;;;5.64;67.12;102098.54;108785;1257;124661;-77
2023/04/21 01:25:57;;;;;;;;;;;;;;;5.63;67.26;102098.49;108916;1257;72710;-77
2023/04/21 01:28:25;;;;;;;;;;;;;;;5.63;67.22;102099.16;108779;1257;60101;-77
2023/04/21 01:30:52;;;;;;;;;;;;;;;5.62;67.25;102099.29;108721;1258;124705;-77
2023/04/21 01:33:19;;;;;;;;;;;;;;;5.61;67.33;102096.61;108938;1257;73430;-77
2023/04/21 01:35:46;;;;;;;;;;;;;;;5.59;67.27;102091.27;108745;1257;125422;-76
2023/04/21 01:38:17;;;;;;;;;;;;;;;5.57;67.54;102090.41;108797;1257;72458;-77
2023/04/21 01:40:45;;;;;;;;;;;;;;;5.56;67.60;102088.92;108793;1257;59459;-78
2023/04/21 01:43:12;;;;;;;;;;;;;;;5.55;67.69;102089.90;107862;1257;124011;-78
2023/04/21 01:45:39;;;;;;;;;;;;;;;5.54;67.81;102087.42;107519;1258;74563;-78
2023/04/21 01:48:06;;;;;;;;;;;;;;;5.54;67.79;102088.61;107491;1260;123769;-79
2023/04/21 01:50:33;;;;;;;;;;;;;;;5.52;67.83;102087.24;107708;1260;71323;-78
2023/04/21 01:53:00;;;;;;;;;;;;;;;5.49;67.95;102079.73;107334;1262;124583;-78
2023/04/21 01:55:28;;;;;;;;;;;;;;;5.46;68.03;102079.39;107368;1257;61320;-78
2023/04/21 01:57:58;;;;;;;;;;;;;;;5.43;68.08;102081.48;107564;1258;73729;-78
2023/04/21 02:00:25;;;;;;;;;;;;;;;5.41;68.16;102077.84;107542;1257;124377;-78
2023/04/21 02:02:52;;;;;;;;;;;;;;;5.38;68.30;102075.92;107716;1260;71377;-78
2023/04/21 02:05:19;;;;;;;;;;;;;;;5.36;68.34;102071.89;107522;1257;123882;-78
2023/04/21 02:07:46;;;;;;;;;;;;;;;5.33;68.45;102075.23;107633;1257;61043;-77
2023/04/21 02:10:13;;;;;;;;;;;;;;;5.31;68.49;102073.67;107445;1258;74647;-77
2023/04/21 02:12:40;;;;;;;;;;;;;;;5.28;68.51;102071.59;107355;1258;124378;-78
2023/04/21 02:15:07;;;;;;;;;;;;;;;5.24;68.69;102069.80;107394;1256;71418;-78
2023/04/21 02:17:35;;;;;;;;;;;;;;;5.22;68.61;102074.86;107478;1261;125382;-78
2023/04/21 02:20:03;;;;;;;;;;;;;;;5.22;68.94;102076.23;107594;1260;61279;-78
2023/04/21 02:22:31;;;;;;;;;;;;;;;5.27;69.07;102074.96;107393;1263;72999;-78
2023/04/21 02:24:58;;;;;;;;;;;;;;;5.34;69.36;102073.89;107389;1257;125372;-78
2023/04/21 02:27:25;;;;;;;;;;;;;;;5.44;69.45;102077.13;107355;1264;70834;-79
2023/04/21 02:29:52;;;;;;;;;;;;;;;5.53;69.39;102076.23;107415;1257;124564;-80
2023/04/21 02:32:19;;;;;;;;;;;;;;;5.58;69.44;102078.64;107719;1257;61146;-77
2023/04/21 02:34:46;;;;;;;;;;;;;;;5.64;69.38;102079.55;107787;1257;75828;-78
2023/04/21 02:37:13;;;;;;;;;;;;;;;5.68;69.24;102081.31;107721;1257;124728;-77
2023/04/21 02:39:40;;;;;;;;;;;;;;;5.71;69.34;102083.11;107755;1256;71383;-78
2023/04/21 02:42:07;;;;;;;;;;;;;;;5.73;69.29;102084.16;107861;1257;125567;-78
2023/04/21 02:44:46;;;;;;;;;;;;;;;5.75;69.28;102084.09;107841;1258;59889;-78
2023/04/21 02:47:14;;;;;;;;;;;;;;;5.78;69.36;102080.84;108738;1257;125095;-77
2023/04/21 02:49:41;;;;;;;;;;;;;;;5.84;69.36;102075.27;108788;1260;67474;-78
2023/04/21 02:52:08;;;;;;;;;;;;;;;5.89;69.35;102081.01;108824;1257;73201;-78
2023/04/21 02:54:55;;;;;;;;;;;;;;;5.94;69.31;102081.48;108687;1257;124377;-78
2023/04/21 02:57:43;;;;;;;;;;;;;;;5.97;69.22;102079.48;108329;1266;59308;-76
2023/04/21 03:00:11;;;;;;;;;;;;;;;6.00;69.29;102080.50;108280;1267;124148;-78
2023/04/21 03:02:38;;;;;;;;;;;;;;;6.02;69.29;102079.78;108341;1265;65280;-78
2023/04/21 03:05:05;;;;;;;;;;;;;;;6.04;69.22;102077.83;108071;1266;125404;-78
2023/04/21 03:07:52;;;;;;;;;;;;;;;6.07;69.29;102075.73;108154;1267;59413;-77
2023/04/21 03:10:39;;;;;;;;;;;;;;;6.11;69.30;102077.73;108301;1264;59448;-78
2023/04/21 03:13:06;;;;;;;;;;;;;;;6.12;69.16;102073.42;108204;1265;124562;-80
2023/04/21 03:15:33;;;;;;;;;;;;;;;6.12;69.19;102072.73;108233;1265;65081;-77
2023/04/21 03:18:00;;;;;;;;;;;;;;;6.11;69.19;102072.87;108165;1265;124851;-77
2023/04/21 03:20:27;;;;;;;;;;;;;;;6.11;69.22;102071.66;108273;1265;60074;-77
2023/04/21 03:22:54;;;;;;;;;;;;;;;6.15;69.23;102070.84;108282;1265;60344;-78
2023/04/21 03:25:22;;;;;;;;;;;;;;;6.18;69.31;102069.46;108316;1265;74509;-77
2023/04/21 03:27:48;;;;;;;;;;;;;;;6.20;69.23;102067.69;108283;1265;65166;-78
2023/04/21 03:30:15;;;;;;;;;;;;;;;6.21;69.21;102062.68;108082;1265;124487;-78
2023/04/21 03:32:42;;;;;;;;;;;;;;;6.22;69.18;102067.99;108361;1265;59352;-78
2023/04/21 03:35:09;;;;;;;;;;;;;;;6.23;69.15;102064.88;108532;1256;124674;-78
2023/04/21 03:37:36;;;;;;;;;;;;;;;6.23;69.16;102063.38;108778;1256;74710;-78
2023/04/21 03:40:07;;;;;;;;;;;;;;;6.25;69.11;102065.55;108821;1257;65945;-78
2023/04/21 03:42:34;;;;;;;;;;;;;;;6.27;69.31;102064.27;108639;1257;124399;-78
2023/04/21 03:45:02;;;;;;;;;;;;;;;6.29;69.16;102063.70;108719;1257;59965;-78
2023/04/21 03:47:29;;;;;;;;;;;;;;;6.31;69.17;102063.01;108600;1259;125373;-78
2023/04/21 03:49:56;;;;;;;;;;;;;;;6.37;69.15;102059.85;108722;1259;74927;-77
2023/04/21 03:52:23;;;;;;;;;;;;;;;6.42;69.14;102057.60;108890;1257;67102;-79
2023/04/21 03:54:50;;;;;;;;;;;;;;;6.62;69.37;102058.29;108797;1256;124935;-78
2023/04/21 03:57:17;;;;;;;;;;;;;;;7.13;69.71;102058.80;108845;1257;59325;-77
2023/04/21 03:59:43;;;;;;;;;;;;;;;7.85;69.72;102061.20;108776;1257;124694;-77
2023/04/21 04:02:13;;;;;;;;;;;;;;;8.60;69.17;102056.46;108905;1257;74961;-79
2023/04/21 04:04:40;;;;;;;;;;;;;;;9.39;68.30;102054.48;108882;1256;65717;-80
2023/04/21 04:07:17;;;;;;;;;;;;;;;10.11;67.39;102050.08;108722;1256;125239;-79
2023/04/21 04:09:49;;;;;;;;;;;;;;;10.90;66.77;102045.84;108769;1256;59469;-79
2023/04/21 04:12:17;;;;;;;;;;;;;;;11.63;65.62;102050.54;108801;1260;123977;-79
2023/04/21 04:14:43;;;;;;;;;;;;;;;12.24;64.71;102053.40;108908;1256;74663;-79
2023/04/21 04:17:10;;;;;;;;;;;;;;;12.93;63.92;102052.80;108701;1257;124386;-80
2023/04/21 04:19:37;;;;;;;;;;;;;;;13.57;62.67;102048.88;108858;1256;71960;-80
2023/04/21 04:22:05;;;;;;;;;;;;;;;14.03;61.36;102048.63;108808;1256;59826;-81
2023/04/21 04:24:32;;;;;;;;;;;;;;;14.59;61.04;102043.95;108687;1257;124666;-80
2023/04/21 04:27:01;;;;;;;;;;;;;;;15.27;60.08;102043.55;108725;1256;72682;-80
2023/04/21 04:29:28;;;;;;;;;;;;;;;15.85;58.92;102051.05;108793;1256;124776;-81
2023/04/21 04:31:56;;;;;;;;;;;;;;;16.44;58.08;102053.45;108699;1257;72811;-79
2023/04/21 04:34:23;;;;;;;;;;;;;;;16.98;57.23;102057.27;108748;1256;59395;-79
2023/04/21 04:36:50;;;;;;;;;;;;;;;17.60;56.34;102049.69;108574;1257;124232;-79
2023/04/21 04:39:17;;;;;;;;;;;;;;;18.21;55.15;102046.06;108754;1257;73502;-80
2023/04/21 04:41:47;;;;;;;;;;;;;;;18.61;54.01;102048.19;108688;1256;124723;-79
2023/04/21 04:44:16;;;;;;;;;;;;;;;19.03;53.30;102047.29;108702;1256;72705;-81
2023/04/21 04:46:44;;;;;;;;;;;;;;;19.46;52.44;102049.31;108833;1256;59390;-81
2023/04/21 04:49:11;;;;;;;;;;;;;;;19.97;51.69;102048.48;108751;1259;124849;-82
2023/04/21 04:51:38;;;;;;;;;;;;;;;20.28;50.26;102050.65;108894;1256;74400;-83
2023/04/21 04:54:05;;;;;;;;;;;;;;;20.62;49.79;102046.91;108809;1256;124681;-83
2023/04/21 04:56:32;;;;;;;;;;;;;;;20.86;48.91;102046.30;108796;1256;73188;-79
2023/04/21 04:58:58;;;;;;;;;;;;;;;21.39;49.10;102045.34;108505;1256;124243;-79
2023/04/21 05:01:29;;;;;;;;;;;;;;;22.18;48.84;102040.48;108781;1257;59841;-80
2023/04/21 05:03:56;;;;;;;;;;;;;;;22.72;47.12;102038.68;108855;1256;74680;-80
2023/04/21 05:06:23;;;;;;;;;;;;;;;22.85;46.33;102039.33;108801;1258;124217;-80
2023/04/21 05:08:50;;;;;;;;;;;;;;;23.01;45.71;102035.33;108838;1256;73116;-79
2023/04/21 05:11:17;;;;;;;;;;;;;;;23.07;44.71;102033.52;108717;1256;124753;-80
2023/04/21 05:13:44;;;;;;;;;;;;;;;23.02;44.59;102037.98;108768;1256;59274;-79
2023/04/21 05:16:11;;;;;;;;;;;;;;;23.12;44.13;102041.71;108767;1259;74824;-80
2023/04/21 05:18:38;;;;;;;;;;;;;;;22.62;43.14;102046.77;108777;1256;124215;-81
2023/04/21 05:21:05;;;;;;;;;;;;;;;21.55;42.80;102048.91;108747;1256;70434;-79
2023/04/21 05:23:33;;;;;;;;;;;;;;;20.24;42.20;102054.88;108745;1256;124376;-81
2023/04/21 05:26:00;;;;;;;;;;;;;;;18.80;42.72;102050.38;108884;1256;59868;-78
2023/04/21 05:28:29;;;;;;;;;;;;;;;17.55;43.14;102053.52;108828;1257;75174;-79
2023/04/21 05:30:55;;;;;;;;;;;;;;;16.53;43.97;102054.91;108749;1256;124390;-79
2023/04/21 05:33:22;;;;;;;;;;;;;;;15.79;44.67;102060.45;108875;1256;72510;-77
2023/04/21 05:35:49;;;;;;;;;;;;;;;15.12;45.23;102065.06;108763;1257;124059;-81
2023/04/21 05:38:17;;;;;;;;;;;;;;;14.43;45.83;102068.21;108886;1256;59176;-80
2023/04/21 05:40:44;;;;;;;;;;;;;;;13.87;46.44;102067.68;108899;1256;73091;-80
2023/04/21 05:43:12;;;;;;;;;;;;;;;13.44;47.22;102072.23;108776;1256;124570;-81
2023/04/21 05:45:39;;;;;;;;;;;;;;;13.15;47.83;102071.21;108824;1256;72684;-80
2023/04/21 05:48:07;;;;;;;;;;;;;;;12.90;48.11;102069.42;108735;1259;125729;-80
2023/04/21 05:50:34;;;;;;;;;;;;;;;12.66;48.69;102070.11;108757;1257;59849;-81
2023/04/21 05:53:01;;;;;;;;;;;;;;;12.45;48.98;102073.55;108800;1256;124512;-80
2023/04/21 05:55:28;;;;;;;;;;;;;;;12.16;49.36;102071.91;108878;1256;65650;-80
2023/04/21 05:57:55;;;;;;;;;;;;;;;11.94;49.93;102072.45;108868;1256;72733;-79
2023/04/21 06:00:22;;;;;;;;;;;;;;;11.82;50.34;102063.67;108728;1256;124664;-80
2023/04/21 06:02:49;;;;;;;;;;;;;;;11.78;50.71;102064.17;108815;1259;59882;-80
2023/04/21 06:05:16;;;;;;;;;;;;;;;11.67;50.87;102070.23;108785;1257;124754;-79
2023/04/21 06:07:43;;;;;;;;;;;;;;;11.49;51.00;102070.36;108872;1256;66939;-79
2023/04/21 06:10:11;;;;;;;;;;;;;;;11.29;51.37;102065.84;108757;1256;71116;-78
2023/04/21 06:12:38;;;;;;;;;;;;;;;11.20;51.84;102063.33;108781;1257;124842;-80
2023/04/21 06:15:06;;;;;;;;;;;;;;;11.15;52.16;102054.52;108730;1256;59527;-80
2023/04/21 06:17:32;;;;;;;;;;;;;;;11.12;52.34;102054.53;108593;1256;124209;-79
2023/04/21 06:19:59;;;;;;;;;;;;;;;11.04;52.56;102054.54;108695;1256;67500;-79
2023/04/21 06:22:26;;;;;;;;;;;;;;;10.93;52.65;102052.49;108853;1256;71424;-79
2023/04/21 06:24:53;;;;;;;;;;;;;;;10.86;53.00;102049.40;108666;1256;124150;-80
2023/04/21 06:27:20;;;;;;;;;;;;;;;10.80;53.21;102048.73;108752;1256;60241;-80
2023/04/21 06:29:47;;;;;;;;;;;;;;;10.75;53.39;102043.25;108707;1256;125318;-79
2023/04/21 06:32:14;;;;;;;;;;;;;;;10.73;53.65;102041.94;108872;1256;67014;-80
2023/04/21 06:34:41;;;;;;;;;;;;;;;10.76;53.81;102039.08;108838;1257;72736;-77
2023/04/21 06:37:08;;;;;;;;;;;;;;;10.78;54.00;102040.94;108781;1256;125183;-77
2023/04/21 06:39:35;;;;;;;;;;;;;;;10.80;54.18;102039.61;108792;1257;59276;-77
2023/04/21 06:42:02;;;;;;;;;;;;;;;10.83;54.16;102041.52;108736;1257;125285;-77
2023/04/21 06:44:31;;;;;;;;;;;;;;;10.85;54.20;102048.63;108926;1256;66077;-77
2023/04/21 06:46:58;;;;;;;;;;;;;;;10.87;54.30;102047.48;108857;1256;124910;-79
2023/04/21 06:49:24;;;;;;;;;;;;;;;10.87;54.23;102052.56;108743;1257;59080;-78
2023/04/21 06:51:51;;;;;;;;;;;;;;;10.83;54.31;102050.43;108746;1256;59662;-78
2023/04/21 06:54:18;;;;;;;;;;;;;;;10.88;54.58;102051.20;108730;1256;124762;-79
2023/04/21 06:56:45;;;;;;;;;;;;;;;10.93;54.46;102053.67;108879;1256;65766;-79
2023/04/21 06:59:13;;;;;;;;;;;;;;;10.90;54.40;102050.27;108563;1257;124971;-79
2023/04/21 07:01:51;;;;;;;;;;;;;;;10.87;54.68;102051.02;107456;1256;60322;-79
2023/04/21 07:04:18;;;;;;;;;;;;;;;10.93;54.79;102049.81;107452;1256;61129;-81
2023/04/21 07:06:45;;;;;;;;;;;;;;;10.99;54.75;102052.95;107321;1256;124128;-79
2023/04/21 07:09:12;;;;;;;;;;;;;;;11.02;54.80;102048.69;107787;1256;67604;-79
2023/04/21 07:11:39;;;;;;;;;;;;;;;11.06;54.49;102051.49;107708;1258;124917;-79
2023/04/21 07:14:06;;;;;;;;;;;;;;;11.03;54.49;102053.09;107785;1256;59420;-79
2023/04/21 07:16:33;;;;;;;;;;;;;;;11.03;54.47;102054.84;107767;1256;60199;-79
2023/04/21 07:19:00;;;;;;;;;;;;;;;11.06;54.43;102053.59;107859;1257;125299;-79
2023/04/21 07:21:29;;;;;;;;;;;;;;;11.08;54.21;102056.84;107918;1257;66023;-79
2023/04/21 07:23:57;;;;;;;;;;;;;;;11.12;54.37;102059.98;107751;1256;124540;-79
2023/04/21 07:26:24;;;;;;;;;;;;;;;11.15;54.35;102054.16;107555;1256;60626;-79
2023/04/21 07:28:51;;;;;;;;;;;;;;;11.22;54.50;102057.80;107707;1256;62153;-79
2023/04/21 07:31:18;;;;;;;;;;;;;;;11.28;54.37;102056.11;107523;1257;124084;-79
2023/04/21 07:33:46;;;;;;;;;;;;;;;11.28;54.19;102055.05;107727;1262;67050;-79
2023/04/21 07:36:13;;;;;;;;;;;;;;;11.28;54.19;102052.07;107650;1256;124651;-79
2023/04/21 07:38:42;;;;;;;;;;;;;;;11.29;54.34;102050.71;107843;1257;60109;-79
2023/04/21 07:41:10;;;;;;;;;;;;;;;11.34;54.25;102053.55;107837;1256;124920;-79
2023/04/21 07:43:37;;;;;;;;;;;;;;;11.36;54.22;102054.17;108042;1256;73388;-79
2023/04/21 07:46:04;;;;;;;;;;;;;;;11.39;54.31;102050.45;107995;1256;67206;-79
2023/04/21 07:48:31;;;;;;;;;;;;;;;11.44;54.26;102051.20;107940;1256;124711;-79
2023/04/21 07:50:59;;;;;;;;;;;;;;;11.47;54.10;102045.67;108050;1256;60996;-79
2023/04/21 07:53:26;;;;;;;;;;;;;;;11.55;54.17;102043.87;107593;1256;124452;-79
2023/04/21 07:55:53;;;;;;;;;;;;;;;11.59;53.98;102044.23;107646;1256;72093;-79
2023/04/21 07:58:20;;;;;;;;;;;;;;;11.62;53.81;102048.04;107655;1259;68345;-79
2023/04/21 08:00:47;;;;;;;;;;;;;;;11.58;53.83;102045.60;107594;1256;124713;-79
2023/04/21 08:03:14;;;;;;;;;;;;;;;11.59;53.80;102042.84;108053;1256;60093;-79
2023/04/21 08:05:41;;;;;;;;;;;;;;;11.67;53.79;102041.91;108126;1256;124528;-79
2023/04/21 08:08:11;;;;;;;;;;;;;;;11.75;53.86;102038.23;108073;1259;73499;-79
2023/04/21 08:10:38;;;;;;;;;;;;;;;11.82;53.80;102036.38;108030;1256;67173;-79
2023/04/21 08:13:08;;;;;;;;;;;;;;;11.88;53.81;102033.30;107557;1256;125155;-79
2023/04/21 08:15:35;;;;;;;;;;;;;;;11.96;53.47;102036.27;107576;1257;59740;-78
2023/04/21 08:18:02;;;;;;;;;;;;;;;11.99;53.43;102039.05;107729;1260;124087;-78
2023/04/21 08:20:29;;;;;;;;;;;;;;;12.02;53.19;102035.46;107629;1259;73269;-78
2023/04/21 08:22:56;;;;;;;;;;;;;;;12.00;53.01;102041.20;107371;1256;65439;-78
2023/04/21 08:25:23;;;;;;;;;;;;;;;11.95;52.71;102038.86;107151;1257;124347;-78
2023/04/21 08:27:50;;;;;;;;;;;;;;;11.93;52.47;102035.42;107420;1257;61290;-78
2023/04/21 08:30:17;;;;;;;;;;;;;;;11.89;52.34;102038.80;107619;1256;124076;-79
2023/04/21 08:32:44;;;;;;;;;;;;;;;11.81;51.79;102033.19;107563;1257;73870;-79
2023/04/21 08:35:11;;;;;;;;;;;;;;;11.76;51.73;102037.02;107281;1257;124827;-78
2023/04/21 08:37:38;;;;;;;;;;;;;;;11.75;52.07;102037.15;107325;1256;72433;-78
2023/04/21 08:40:07;;;;;;;;;;;;;;;11.77;52.48;102032.66;107481;1256;61246;-78
2023/04/21 08:42:34;;;;;;;;;;;;;;;11.81;52.91;102034.39;107305;1256;124338;-77
2023/04/21 08:45:01;;;;;;;;;;;;;;;11.82;52.58;102035.86;107294;1257;73716;-78
2023/04/21 08:47:28;;;;;;;;;;;;;;;11.81;51.91;102035.31;107224;1257;125621;-79
2023/04/21 08:49:55;;;;;;;;;;;;;;;11.82;51.62;102035.17;107350;1256;72711;-79
2023/04/21 08:52:22;;;;;;;;;;;;;;;11.85;51.76;102035.42;107457;1257;61198;-79
2023/04/21 08:54:51;;;;;;;;;;;;;;;11.89;51.86;102031.73;107196;1256;124553;-79
2023/04/21 08:57:18;;;;;;;;;;;;;;;11.96;52.01;102030.98;107364;1260;74709;-79
2023/04/21 08:59:45;;;;;;;;;;;;;;;11.98;51.69;102025.80;107660;1256;124263;-79
2023/04/21 09:02:13;;;;;;;;;;;;;;;11.99;51.26;102023.56;107702;1257;72403;-79
2023/04/21 09:04:41;;;;;;;;;;;;;;;12.05;51.38;102022.57;107518;1257;60921;-79
2023/04/21 09:07:09;;;;;;;;;;;;;;;12.13;51.68;102018.48;107451;1257;124714;-79
2023/04/21 09:09:54;;;;;;;;;;;;;;;12.21;51.90;102014.20;107227;1257;75168;-79
2023/04/21 09:12:21;;;;;;;;;;;;;;;12.30;52.07;102019.48;107275;1256;126123;-79
2023/04/21 09:14:48;;;;;;;;;;;;;;;12.33;52.11;102017.81;107699;1256;71540;-79
2023/04/21 09:17:15;;;;;;;;;;;;;;;12.36;52.36;102015.81;107418;1257;124305;-79
2023/04/21 09:19:42;;;;;;;;;;;;;;;12.39;51.98;102022.09;107790;1256;59415;-79
2023/04/21 09:22:13;;;;;;;;;;;;;;;12.37;51.73;102013.91;107826;1256;75377;-79
2023/04/21 09:24:44;;;;;;;;;;;;;;;12.36;51.59;102017.78;107963;1256;124607;-79
2023/04/21 09:27:11;;;;;;;;;;;;;;;12.41;51.44;102015.66;108025;1258;71855;-79
2023/04/21 09:29:38;;;;;;;;;;;;;;;12.44;50.89;102008.75;107670;1260;125345;-79
2023/04/21 09:32:05;;;;;;;;;;;;;;;12.48;50.43;102012.73;107966;1256;59743;-79
2023/04/21 09:34:34;;;;;;;;;;;;;;;12.44;50.28;102007.19;107893;1256;73366;-79
2023/04/21 09:37:01;;;;;;;;;;;;;;;12.43;50.52;102005.89;107939;1260;124660;-79
2023/04/21 09:39:29;;;;;;;;;;;;;;;12.42;50.94;102003.57;107780;1257;70907;-79
2023/04/21 09:41:57;;;;;;;;;;;;;;;12.44;50.24;102010.68;107837;1256;124976;-79
2023/04/21 09:44:24;;;;;;;;;;;;;;;12.45;50.25;102003.68;107879;1256;59459;-79
2023/04/21 09:46:53;;;;;;;;;;;;;;;12.52;50.31;102001.46;107877;1257;75536;-79
2023/04/21 09:49:21;;;;;;;;;;;;;;;12.53;50.16;102001.33;107875;1256;124692;-79
2023/04/21 09:51:48;;;;;;;;;;;;;;;12.53;50.19;101998.51;108724;1257;71416;-79
2023/04/21 09:54:15;;;;;;;;;;;;;;;12.53;50.31;101998.68;108650;1256;124656;-79
2023/04/21 09:56:43;;;;;;;;;;;;;;;12.56;50.25;101995.62;108737;1256;60107;-79
2023/04/21 09:59:11;;;;;;;;;;;;;;;12.63;50.31;101997.13;108585;1256;124759;-79
2023/04/21 10:01:38;;;;;;;;;;;;;;;12.68;49.91;101990.20;108810;1257;65862;-79
2023/04/21 10:04:05;;;;;;;;;;;;;;;12.72;49.94;101991.98;108845;1256;71377;-79
2023/04/21 10:06:32;;;;;;;;;;;;;;;12.75;49.30;101994.73;108625;1256;124874;-79
2023/04/21 10:08:59;;;;;;;;;;;;;;;12.74;49.06;101990.82;108801;1256;59967;-79
2023/04/21 10:11:25;;;;;;;;;;;;;;;12.73;49.10;101984.97;108605;1257;124242;-79
2023/04/21 10:13:52;;;;;;;;;;;;;;;12.73;48.88;101989.20;108704;1257;67248;-79
2023/04/21 10:16:21;;;;;;;;;;;;;;;12.75;48.60;101987.67;108632;1256;72755;-80
2023/04/21 10:18:49;;;;;;;;;;;;;;;12.74;48.58;101986.22;107785;1256;124709;-79
2023/04/21 10:21:23;;;;;;;;;;;;;;;12.71;48.47;101982.77;107541;1259;61318;-81
2023/04/21 10:23:53;;;;;;;;;;;;;;;12.71;48.41;101980.29;107360;1257;125222;-80
2023/04/21 10:26:28;;;;;;;;;;;;;;;12.76;48.25;101980.65;107423;1257;65917;-79
2023/04/21 10:28:56;;;;;;;;;;;;;;;12.80;48.30;101984.14;107520;1264;73635;-79
2023/04/21 10:31:36;;;;;;;;;;;;;;;12.80;47.96;101975.71;107898;1256;124874;-79
2023/04/21 10:34:12;;;;;;;;;;;;;;;12.83;47.80;101974.41;107902;1256;60297;-79
2023/04/21 10:37:02;;;;;;;;;;;;;;;12.92;47.60;101973.30;108068;1256;124575;-79
2023/04/21 10:39:36;;;;;;;;;;;;;;;12.97;47.46;101968.55;107759;1257;67655;-81
2023/04/21 10:42:12;;;;;;;;;;;;;;;13.02;47.73;101965.20;107452;1261;124619;-80
2023/04/21 10:44:42;;;;;;;;;;;;;;;13.12;47.09;101969.04;107879;1256;59851;-80
2023/04/21 10:47:10;;;;;;;;;;;;;;;13.16;46.94;101967.95;107205;1256;124983;-81
2023/04/21 10:49:37;;;;;;;;;;;;;;;13.17;46.84;101959.02;107475;1256;73396;-80
2023/04/21 10:52:05;;;;;;;;;;;;;;;13.21;46.75;101959.14;107376;1257;64770;-80
2023/04/21 10:54:36;;;;;;;;;;;;;;;13.26;45.92;101961.25;107457;1256;124762;-79
2023/04/21 10:57:04;;;;;;;;;;;;;;;13.25;45.81;101960.35;107327;1257;60062;-80
2023/04/21 10:59:33;;;;;;;;;;;;;;;13.26;45.69;101957.01;107351;1257;125910;-81
2023/04/21 11:02:00;;;;;;;;;;;;;;;13.27;45.69;101952.27;107623;1256;73741;-80
2023/04/21 11:04:27;;;;;;;;;;;;;;;13.35;45.86;101954.86;107630;1257;66855;-79
2023/04/21 11:07:09;;;;;;;;;;;;;;;13.44;45.88;101948.11;107756;1256;124733;-79
2023/04/21 11:09:36;;;;;;;;;;;;;;;13.52;45.44;101949.23;108009;1257;59561;-81
2023/04/21 11:12:06;;;;;;;;;;;;;;;13.54;45.49;101944.38;107872;1262;124682;-79
2023/04/21 11:14:36;;;;;;;;;;;;;;;13.55;44.92;101951.84;107908;1256;75205;-79
2023/04/21 11:17:03;;;;;;;;;;;;;;;13.54;45.27;101938.73;107509;1257;124370;-79
2023/04/21 11:19:30;;;;;;;;;;;;;;;13.58;45.21;101940.99;107332;1256;73168;-79
2023/04/21 11:21:57;;;;;;;;;;;;;;;13.58;45.32;101938.87;107696;1256;62162;-80
2023/04/21 11:24:24;;;;;;;;;;;;;;;13.56;45.19;101933.33;107613;1256;124781;-80
2023/04/21 11:26:51;;;;;;;;;;;;;;;13.56;45.40;101932.27;107897;1257;73725;-79
2023/04/21 11:29:18;;;;;;;;;;;;;;;13.57;45.25;101936.16;107839;1256;125105;-80
2023/04/21 11:31:49;;;;;;;;;;;;;;;13.56;45.37;101929.63;107601;1262;71720;-79
2023/04/21 11:34:18;;;;;;;;;;;;;;;13.61;45.56;101927.30;107702;1256;61311;-79
2023/04/21 11:36:45;;;;;;;;;;;;;;;13.61;45.23;101928.57;107568;1256;124386;-80
2023/04/21 11:39:14;;;;;;;;;;;;;;;13.56;45.07;101926.63;107813;1264;74532;-79
2023/04/21 11:41:42;;;;;;;;;;;;;;;13.51;45.30;101920.66;107797;1256;124829;-79
2023/04/21 11:44:09;;;;;;;;;;;;;;;13.50;45.18;101922.39;107473;1264;72642;-79
2023/04/21 11:46:36;;;;;;;;;;;;;;;13.55;45.53;101914.77;107714;1264;61433;-79
2023/04/21 11:49:04;;;;;;;;;;;;;;;13.56;45.30;101912.69;107899;1257;125049;-79
2023/04/21 11:51:34;;;;;;;;;;;;;;;13.54;45.29;101917.22;107786;1256;74512;-80
2023/04/21 11:54:01;;;;;;;;;;;;;;;13.57;45.42;101908.67;107496;1260;124681;-80
2023/04/21 11:56:28;;;;;;;;;;;;;;;13.63;45.14;101914.84;107480;1263;72451;-80
2023/04/21 11:58:55;;;;;;;;;;;;;;;13.58;44.98;101912.06;107599;1257;61351;-80
2023/04/21 12:01:22;;;;;;;;;;;;;;;13.53;45.14;101910.13;107514;1256;124806;-80
2023/04/21 12:03:52;;;;;;;;;;;;;;;13.53;45.16;101902.36;107727;1256;75186;-79
2023/04/21 12:06:20;;;;;;;;;;;;;;;13.58;45.42;101907.66;107369;1260;124678;-79
2023/04/21 12:08:47;;;;;;;;;;;;;;;13.63;45.50;101901.45;107461;1256;72754;-80
2023/04/21 12:11:15;;;;;;;;;;;;;;;13.63;45.63;101893.85;107509;1256;125249;-80
2023/04/21 12:13:43;;;;;;;;;;;;;;;13.65;45.59;101893.23;107719;1256;60911;-79
2023/04/21 12:16:11;;;;;;;;;;;;;;;13.66;45.64;101890.77;107541;1263;275716;-79
2023/04/21 12:18:39;;;;;;;;;;;;;;;13.68;45.81;101885.55;107312;1256;125591;-78
2023/04/21 12:21:05;;;;;;;;;;;;;;;13.69;45.71;101886.65;107606;1256;71412;-78
2023/04/21 12:23:32;;;;;;;;;;;;;;;13.70;45.70;101884.92;107363;1256;124492;-78
2023/04/21 12:26:00;;;;;;;;;;;;;;;13.73;45.88;101877.77;107616;1256;59607;-79
2023/04/21 12:28:28;;;;;;;;;;;;;;;13.76;45.72;101877.32;107736;1257;75220;-78
2023/04/21 12:30:55;;;;;;;;;;;;;;;13.77;45.89;101873.83;107221;1259;124984;-78